sensor_id;sensor_type;location;lat;lon;timestamp;pressure;altitude;pressure_sealevel;temperature;humidity
56992;BME280;42885;49.754;18.636;2024-03-02T00:02:54;97587.66;;;12.38;100.00
56992;BME280;42885;49.754;18.636;2024-03-02T00:05:43;97585.91;;;12.10;100.00
56992;BME280;42885;49.754;18.636;2024-03-02T00:08:34;97583.23;;;11.93;100.00
56992;BME280;42885;49.754;18.636;2024-03-02T00:11:23;97587.73;;;11.63;100.00
56992;BME280;42885;49.754;18.636;2024-03-02T00:14:12;97579.51;;;11.62;100.00
56992;BME280;42885;49.754;18.636;2024-03-02T00:17:03;97588.62;;;11.39;100.00
56992;BME280;42885;49.754;18.636;2024-03-02T00:19:52;97583.13;;;11.36;100.00
56992;BME280;42885;49.754;18.636;2024-03-02T00:22:47;97591.03;;;11.42;100.00
56992;BME280;42885;49.754;18.636;2024-03-02T00:25:52;97598.39;;;11.42;100.00
56992;BME280;42885;49.754;18.636;2024-03-02T00:28:44;97602.94;;;11.46;100.00
56992;BME280;42885;49.754;18.636;2024-03-02T00:31:33;97594.26;;;11.46;100.00
56992;BME280;42885;49.754;18.636;2024-03-02T00:34:22;97588.06;;;11.47;100.00
56992;BME280;42885;49.754;18.636;2024-03-02T00:37:14;97586.14;;;11.37;100.00
56992;BME280;42885;49.754;18.636;2024-03-02T00:40:04;97584.41;;;10.95;100.00
56992;BME280;42885;49.754;18.636;2024-03-02T00:42:56;97577.08;;;11.06;100.00
56992;BME280;42885;49.754;18.636;2024-03-02T00:45:45;97579.16;;;11.19;100.00
56992;BME280;42885;49.754;18.636;2024-03-02T00:48:35;97574.70;;;11.03;100.00
56992;BME280;42885;49.754;18.636;2024-03-02T00:51:27;97581.05;;;10.87;100.00
56992;BME280;42885;49.754;18.636;2024-03-02T00:54:21;97575.27;;;11.31;100.00
56992;BME280;42885;49.754;18.636;2024-03-02T00:57:12;97574.59;;;11.04;100.00
56992;BME280;42885;49.754;18.636;2024-03-02T01:00:02;97573.23;;;11.28;100.00
56992;BME280;42885;49.754;18.636;2024-03-02T01:02:53;97571.75;;;11.13;100.00
56992;BME280;42885;49.754;18.636;2024-03-02T01:05:42;97572.48;;;10.85;100.00
56992;BME280;42885;49.754;18.636;2024-03-02T01:08:32;97580.25;;;10.49;100.00
56992;BME280;42885;49.754;18.636;2024-03-02T01:11:22;97580.59;;;10.69;100.00
56992;BME280;42885;49.754;18.636;2024-03-02T01:14:12;97588.34;;;10.70;100.00
56992;BME280;42885;49.754;18.636;2024-03-02T01:17:01;97578.09;;;10.92;100.00
56992;BME280;42885;49.754;18.636;2024-03-02T01:19:53;97580.06;;;10.77;100.00
56992;BME280;42885;49.754;18.636;2024-03-02T01:22:42;97582.09;;;10.28;100.00
56992;BME280;42885;49.754;18.636;2024-03-02T01:25:32;97579.05;;;10.35;100.00
56992;BME280;42885;49.754;18.636;2024-03-02T01:28:21;97571.53;;;10.43;100.00
56992;BME280;42885;49.754;18.636;2024-03-02T01:31:10;97565.80;;;10.56;100.00
56992;BME280;42885;49.754;18.636;2024-03-02T01:33:59;97556.48;;;10.52;100.00
56992;BME280;42885;49.754;18.636;2024-03-02T01:36:48;97555.41;;;10.49;100.00
56992;BME280;42885;49.754;18.636;2024-03-02T01:39:37;97548.70;;;10.45;100.00
56992;BME280;42885;49.754;18.636;2024-03-02T01:42:27;97550.07;;;10.51;100.00
56992;BME280;42885;49.754;18.636;2024-03-02T01:45:17;97552.89;;;10.48;100.00
56992;BME280;42885;49.754;18.636;2024-03-02T01:48:07;97542.75;;;10.43;100.00
56992;BME280;42885;49.754;18.636;2024-03-02T01:50:55;97542.80;;;10.36;100.00
56992;BME280;42885;49.754;18.636;2024-03-02T01:53:45;97539.78;;;10.42;100.00
56992;BME280;42885;49.754;18.636;2024-03-02T01:56:34;97548.50;;;10.48;100.00
56992;BME280;42885;49.754;18.636;2024-03-02T01:59:23;97545.64;;;10.32;100.00
56992;BME280;42885;49.754;18.636;2024-03-02T02:02:13;97543.97;;;10.31;100.00
56992;BME280;42885;49.754;18.636;2024-03-02T02:05:03;97544.70;;;10.52;100.00
56992;BME280;42885;49.754;18.636;2024-03-02T02:07:52;97538.06;;;10.54;100.00
56992;BME280;42885;49.754;18.636;2024-03-02T02:10:42;97544.02;;;10.56;100.00
56992;BME280;42885;49.754;18.636;2024-03-02T02:13:31;97547.47;;;10.25;100.00
56992;BME280;42885;49.754;18.636;2024-03-02T02:16:20;97546.39;;;10.40;100.00
56992;BME280;42885;49.754;18.636;2024-03-02T02:19:10;97539.80;;;10.48;100.00
56992;BME280;42885;49.754;18.636;2024-03-02T02:22:00;97537.66;;;10.66;100.00
56992;BME280;42885;49.754;18.636;2024-03-02T02:24:49;97537.96;;;10.24;100.00
56992;BME280;42885;49.754;18.636;2024-03-02T02:27:37;97544.47;;;10.18;100.00
56992;BME280;42885;49.754;18.636;2024-03-02T02:30:29;97543.78;;;10.22;100.00
56992;BME280;42885;49.754;18.636;2024-03-02T02:33:18;97539.13;;;10.38;100.00
56992;BME280;42885;49.754;18.636;2024-03-02T02:36:08;97537.00;;;10.38;100.00
56992;BME280;42885;49.754;18.636;2024-03-02T02:38:58;97525.73;;;10.86;100.00
56992;BME280;42885;49.754;18.636;2024-03-02T02:41:50;97524.33;;;10.69;100.00
56992;BME280;42885;49.754;18.636;2024-03-02T02:44:40;97529.04;;;10.82;100.00
56992;BME280;42885;49.754;18.636;2024-03-02T02:47:29;97526.00;;;10.94;100.00
56992;BME280;42885;49.754;18.636;2024-03-02T02:50:19;97528.11;;;10.89;100.00
56992;BME280;42885;49.754;18.636;2024-03-02T02:53:09;97538.32;;;10.56;100.00
56992;BME280;42885;49.754;18.636;2024-03-02T02:55:58;97531.88;;;10.55;100.00
56992;BME280;42885;49.754;18.636;2024-03-02T02:58:48;97534.31;;;10.64;100.00
56992;BME280;42885;49.754;18.636;2024-03-02T03:01:37;97537.08;;;10.73;100.00
56992;BME280;42885;49.754;18.636;2024-03-02T03:04:27;97538.16;;;10.71;100.00
56992;BME280;42885;49.754;18.636;2024-03-02T03:07:15;97548.04;;;10.73;100.00
56992;BME280;42885;49.754;18.636;2024-03-02T03:10:04;97554.37;;;10.57;100.00
56992;BME280;42885;49.754;18.636;2024-03-02T03:12:53;97550.69;;;10.54;100.00
56992;BME280;42885;49.754;18.636;2024-03-02T03:15:44;97556.85;;;10.40;100.00
56992;BME280;42885;49.754;18.636;2024-03-02T03:18:33;97558.75;;;10.19;100.00
56992;BME280;42885;49.754;18.636;2024-03-02T03:21:22;97555.61;;;10.14;100.00
56992;BME280;42885;49.754;18.636;2024-03-02T03:24:12;97550.12;;;10.12;100.00
56992;BME280;42885;49.754;18.636;2024-03-02T03:27:00;97553.26;;;10.17;100.00
56992;BME280;42885;49.754;18.636;2024-03-02T03:29:50;97549.83;;;10.35;100.00
56992;BME280;42885;49.754;18.636;2024-03-02T03:32:39;97551.95;;;10.36;100.00
56992;BME280;42885;49.754;18.636;2024-03-02T03:35:29;97567.31;;;10.22;100.00
56992;BME280;42885;49.754;18.636;2024-03-02T03:38:18;97561.03;;;10.05;100.00
56992;BME280;42885;49.754;18.636;2024-03-02T03:41:07;97560.48;;;10.32;100.00
56992;BME280;42885;49.754;18.636;2024-03-02T03:43:56;97561.11;;;10.17;100.00
56992;BME280;42885;49.754;18.636;2024-03-02T03:46:45;97553.59;;;10.31;100.00
56992;BME280;42885;49.754;18.636;2024-03-02T03:49:35;97557.99;;;10.43;100.00
56992;BME280;42885;49.754;18.636;2024-03-02T03:52:24;97545.75;;;10.50;100.00
56992;BME280;42885;49.754;18.636;2024-03-02T03:55:14;97547.34;;;10.77;100.00
56992;BME280;42885;49.754;18.636;2024-03-02T03:58:04;97546.43;;;10.89;100.00
56992;BME280;42885;49.754;18.636;2024-03-02T04:00:53;97536.34;;;10.66;100.00
56992;BME280;42885;49.754;18.636;2024-03-02T04:03:42;97537.71;;;10.83;100.00
56992;BME280;42885;49.754;18.636;2024-03-02T04:06:32;97529.34;;;11.02;100.00
56992;BME280;42885;49.754;18.636;2024-03-02T04:09:21;97527.78;;;10.99;100.00
56992;BME280;42885;49.754;18.636;2024-03-02T04:12:10;97529.92;;;10.94;100.00
56992;BME280;42885;49.754;18.636;2024-03-02T04:15:02;97531.86;;;11.04;100.00
56992;BME280;42885;49.754;18.636;2024-03-02T04:17:52;97534.23;;;11.07;100.00
56992;BME280;42885;49.754;18.636;2024-03-02T04:20:42;97531.94;;;11.38;100.00
56992;BME280;42885;49.754;18.636;2024-03-02T04:23:31;97527.45;;;11.63;100.00
56992;BME280;42885;49.754;18.636;2024-03-02T04:26:20;97523.52;;;11.57;100.00
56992;BME280;42885;49.754;18.636;2024-03-02T04:29:10;97530.56;;;11.62;100.00
56992;BME280;42885;49.754;18.636;2024-03-02T04:32:00;97538.04;;;11.61;100.00
56992;BME280;42885;49.754;18.636;2024-03-02T04:34:49;97531.27;;;11.64;100.00
56992;BME280;42885;49.754;18.636;2024-03-02T04:37:39;97536.47;;;11.41;100.00
56992;BME280;42885;49.754;18.636;2024-03-02T04:40:28;97539.09;;;11.41;100.00
56992;BME280;42885;49.754;18.636;2024-03-02T04:43:17;97538.38;;;11.39;100.00
56992;BME280;42885;49.754;18.636;2024-03-02T04:46:07;97537.19;;;11.49;100.00
56992;BME280;42885;49.754;18.636;2024-03-02T04:48:56;97536.97;;;11.64;100.00
56992;BME280;42885;49.754;18.636;2024-03-02T04:51:45;97534.25;;;11.60;100.00
56992;BME280;42885;49.754;18.636;2024-03-02T04:54:35;97532.69;;;11.74;100.00
56992;BME280;42885;49.754;18.636;2024-03-02T04:57:26;97535.45;;;12.01;100.00
56992;BME280;42885;49.754;18.636;2024-03-02T05:00:15;97534.25;;;12.00;100.00
56992;BME280;42885;49.754;18.636;2024-03-02T05:03:05;97534.41;;;12.04;100.00
56992;BME280;42885;49.754;18.636;2024-03-02T05:05:54;97537.34;;;11.93;100.00
56992;BME280;42885;49.754;18.636;2024-03-02T05:08:43;97540.36;;;12.11;100.00
56992;BME280;42885;49.754;18.636;2024-03-02T05:11:33;97538.89;;;12.30;100.00
56992;BME280;42885;49.754;18.636;2024-03-02T05:14:23;97538.22;;;12.17;100.00
56992;BME280;42885;49.754;18.636;2024-03-02T05:17:13;97541.33;;;12.05;100.00
56992;BME280;42885;49.754;18.636;2024-03-02T05:20:08;97544.25;;;11.94;100.00
56992;BME280;42885;49.754;18.636;2024-03-02T05:22:52;97543.78;;;11.61;100.00
56992;BME280;42885;49.754;18.636;2024-03-02T05:25:41;97545.71;;;11.87;100.00
56992;BME280;42885;49.754;18.636;2024-03-02T05:28:30;97551.45;;;12.09;100.00
56992;BME280;42885;49.754;18.636;2024-03-02T05:31:19;97544.72;;;12.39;100.00
56992;BME280;42885;49.754;18.636;2024-03-02T05:34:08;97547.23;;;11.90;100.00
56992;BME280;42885;49.754;18.636;2024-03-02T05:36:58;97553.13;;;12.05;100.00
56992;BME280;42885;49.754;18.636;2024-03-02T05:39:47;97552.38;;;12.37;100.00
56992;BME280;42885;49.754;18.636;2024-03-02T05:42:37;97547.47;;;12.32;100.00
56992;BME280;42885;49.754;18.636;2024-03-02T05:45:26;97551.20;;;12.30;100.00
56992;BME280;42885;49.754;18.636;2024-03-02T05:48:16;97555.00;;;12.25;100.00
56992;BME280;42885;49.754;18.636;2024-03-02T05:51:06;97552.72;;;12.44;100.00
56992;BME280;42885;49.754;18.636;2024-03-02T05:53:54;97550.92;;;12.38;100.00
56992;BME280;42885;49.754;18.636;2024-03-02T05:56:44;97565.44;;;12.60;100.00
56992;BME280;42885;49.754;18.636;2024-03-02T05:59:34;97559.50;;;12.52;100.00
56992;BME280;42885;49.754;18.636;2024-03-02T06:02:23;97569.20;;;12.34;100.00
56992;BME280;42885;49.754;18.636;2024-03-02T06:05:13;97569.07;;;12.42;100.00
56992;BME280;42885;49.754;18.636;2024-03-02T06:08:03;97576.95;;;12.24;100.00
56992;BME280;42885;49.754;18.636;2024-03-02T06:10:53;97584.34;;;12.14;100.00
56992;BME280;42885;49.754;18.636;2024-03-02T06:13:41;97587.08;;;12.06;100.00
56992;BME280;42885;49.754;18.636;2024-03-02T06:16:31;97577.63;;;11.87;100.00
56992;BME280;42885;49.754;18.636;2024-03-02T06:19:20;97591.09;;;11.76;100.00
56992;BME280;42885;49.754;18.636;2024-03-02T06:22:09;97590.63;;;11.35;100.00
56992;BME280;42885;49.754;18.636;2024-03-02T06:24:59;97584.84;;;11.49;100.00
56992;BME280;42885;49.754;18.636;2024-03-02T06:27:49;97592.66;;;11.84;100.00
56992;BME280;42885;49.754;18.636;2024-03-02T06:30:38;97596.34;;;11.88;100.00
56992;BME280;42885;49.754;18.636;2024-03-02T06:33:27;97601.03;;;12.07;100.00
56992;BME280;42885;49.754;18.636;2024-03-02T06:36:17;97603.30;;;12.11;100.00
56992;BME280;42885;49.754;18.636;2024-03-02T06:39:06;97601.53;;;12.12;100.00
56992;BME280;42885;49.754;18.636;2024-03-02T06:41:55;97609.48;;;12.28;100.00
56992;BME280;42885;49.754;18.636;2024-03-02T06:44:44;97605.09;;;12.22;100.00
56992;BME280;42885;49.754;18.636;2024-03-02T06:47:34;97610.44;;;12.32;100.00
56992;BME280;42885;49.754;18.636;2024-03-02T06:50:24;97612.72;;;12.43;100.00
56992;BME280;42885;49.754;18.636;2024-03-02T06:53:13;97621.06;;;12.53;100.00
56992;BME280;42885;49.754;18.636;2024-03-02T06:56:04;97625.19;;;11.99;100.00
56992;BME280;42885;49.754;18.636;2024-03-02T06:58:53;97622.55;;;11.76;100.00
56992;BME280;42885;49.754;18.636;2024-03-02T07:01:42;97616.19;;;12.26;100.00
56992;BME280;42885;49.754;18.636;2024-03-02T07:04:32;97618.09;;;12.30;100.00
56992;BME280;42885;49.754;18.636;2024-03-02T07:07:22;97616.15;;;12.49;100.00
56992;BME280;42885;49.754;18.636;2024-03-02T07:10:11;97616.01;;;12.73;100.00
56992;BME280;42885;49.754;18.636;2024-03-02T07:13:01;97622.23;;;12.66;100.00
56992;BME280;42885;49.754;18.636;2024-03-02T07:15:51;97621.44;;;12.26;100.00
56992;BME280;42885;49.754;18.636;2024-03-02T07:18:44;97610.77;;;12.56;100.00
56992;BME280;42885;49.754;18.636;2024-03-02T07:21:35;97612.51;;;12.90;100.00
56992;BME280;42885;49.754;18.636;2024-03-02T07:24:24;97615.97;;;13.23;100.00
56992;BME280;42885;49.754;18.636;2024-03-02T07:27:13;97615.88;;;13.13;100.00
56992;BME280;42885;49.754;18.636;2024-03-02T07:30:04;97618.91;;;13.03;100.00
56992;BME280;42885;49.754;18.636;2024-03-02T07:32:53;97630.11;;;12.66;100.00
56992;BME280;42885;49.754;18.636;2024-03-02T07:35:43;97625.18;;;12.79;100.00
56992;BME280;42885;49.754;18.636;2024-03-02T07:38:32;97623.99;;;12.83;100.00
56992;BME280;42885;49.754;18.636;2024-03-02T07:41:23;97628.62;;;13.29;100.00
56992;BME280;42885;49.754;18.636;2024-03-02T07:44:13;97629.45;;;13.62;100.00
56992;BME280;42885;49.754;18.636;2024-03-02T07:47:07;97633.42;;;13.78;100.00
56992;BME280;42885;49.754;18.636;2024-03-02T07:49:56;97639.95;;;13.84;100.00
56992;BME280;42885;49.754;18.636;2024-03-02T07:52:46;97632.89;;;13.63;100.00
56992;BME280;42885;49.754;18.636;2024-03-02T07:55:35;97637.22;;;13.80;100.00
56992;BME280;42885;49.754;18.636;2024-03-02T07:58:24;97638.98;;;14.22;100.00
56992;BME280;42885;49.754;18.636;2024-03-02T08:01:13;97636.57;;;14.24;100.00
56992;BME280;42885;49.754;18.636;2024-03-02T08:04:03;97634.72;;;13.99;100.00
56992;BME280;42885;49.754;18.636;2024-03-02T08:06:53;97639.45;;;14.37;100.00
56992;BME280;42885;49.754;18.636;2024-03-02T08:09:43;97634.11;;;14.33;100.00
56992;BME280;42885;49.754;18.636;2024-03-02T08:12:32;97636.34;;;14.63;96.00
56992;BME280;42885;49.754;18.636;2024-03-02T08:15:22;97633.34;;;14.93;97.26
56992;BME280;42885;49.754;18.636;2024-03-02T08:18:12;97633.34;;;14.93;95.71
56992;BME280;42885;49.754;18.636;2024-03-02T08:21:02;97639.14;;;14.86;90.95
56992;BME280;42885;49.754;18.636;2024-03-02T08:23:52;97633.63;;;15.09;88.40
56992;BME280;42885;49.754;18.636;2024-03-02T08:26:42;97637.24;;;15.08;88.62
56992;BME280;42885;49.754;18.636;2024-03-02T08:29:32;97646.51;;;14.93;89.38
56992;BME280;42885;49.754;18.636;2024-03-02T08:32:21;97645.98;;;15.19;88.29
56992;BME280;42885;49.754;18.636;2024-03-02T08:35:11;97649.94;;;15.19;90.15
56992;BME280;42885;49.754;18.636;2024-03-02T08:38:03;97654.91;;;14.77;93.23
56992;BME280;42885;49.754;18.636;2024-03-02T08:40:52;97655.76;;;14.77;93.44
56992;BME280;42885;49.754;18.636;2024-03-02T08:43:42;97648.86;;;14.86;92.41
56992;BME280;42885;49.754;18.636;2024-03-02T08:46:34;97642.92;;;15.04;92.57
56992;BME280;42885;49.754;18.636;2024-03-02T08:49:24;97643.55;;;15.11;90.98
56992;BME280;42885;49.754;18.636;2024-03-02T08:52:13;97646.55;;;15.22;90.54
56992;BME280;42885;49.754;18.636;2024-03-02T08:55:02;97643.78;;;15.24;88.66
56992;BME280;42885;49.754;18.636;2024-03-02T08:57:51;97648.77;;;15.27;87.09
56992;BME280;42885;49.754;18.636;2024-03-02T09:00:41;97646.05;;;15.33;85.81
56992;BME280;42885;49.754;18.636;2024-03-02T09:03:29;97644.20;;;15.49;84.97
56992;BME280;42885;49.754;18.636;2024-03-02T09:06:20;97647.93;;;15.36;83.94
56992;BME280;42885;49.754;18.636;2024-03-02T09:09:09;97652.16;;;15.53;83.64
56992;BME280;42885;49.754;18.636;2024-03-02T09:11:58;97646.41;;;15.44;84.86
56992;BME280;42885;49.754;18.636;2024-03-02T09:14:48;97642.16;;;15.57;84.18
56992;BME280;42885;49.754;18.636;2024-03-02T09:17:38;97651.58;;;15.79;83.15
56992;BME280;42885;49.754;18.636;2024-03-02T09:20:28;97645.06;;;15.73;83.84
56992;BME280;42885;49.754;18.636;2024-03-02T09:23:17;97654.16;;;15.75;83.02
56992;BME280;42885;49.754;18.636;2024-03-02T09:26:06;97645.89;;;15.93;82.29
56992;BME280;42885;49.754;18.636;2024-03-02T09:28:55;97650.59;;;15.90;83.67
56992;BME280;42885;49.754;18.636;2024-03-02T09:31:45;97654.02;;;15.96;82.09
56992;BME280;42885;49.754;18.636;2024-03-02T09:34:34;97653.34;;;15.94;83.56
56992;BME280;42885;49.754;18.636;2024-03-02T09:37:26;97653.83;;;15.74;84.63
56992;BME280;42885;49.754;18.636;2024-03-02T09:40:16;97660.61;;;15.96;83.91
56992;BME280;42885;49.754;18.636;2024-03-02T09:43:05;97653.36;;;16.08;79.86
56992;BME280;42885;49.754;18.636;2024-03-02T09:45:56;97659.44;;;16.18;76.43
56992;BME280;42885;49.754;18.636;2024-03-02T09:48:46;97660.01;;;16.12;75.18
56992;BME280;42885;49.754;18.636;2024-03-02T09:51:35;97663.44;;;16.22;74.28
56992;BME280;42885;49.754;18.636;2024-03-02T09:54:24;97666.27;;;16.11;74.59
56992;BME280;42885;49.754;18.636;2024-03-02T09:57:15;97668.43;;;16.12;74.70
56992;BME280;42885;49.754;18.636;2024-03-02T10:00:06;97672.86;;;16.11;74.15
56992;BME280;42885;49.754;18.636;2024-03-02T10:02:55;97669.29;;;16.02;75.40
56992;BME280;42885;49.754;18.636;2024-03-02T10:05:46;97672.00;;;16.20;73.55
56992;BME280;42885;49.754;18.636;2024-03-02T10:08:44;97678.22;;;16.15;73.27
56992;BME280;42885;49.754;18.636;2024-03-02T10:11:35;97681.98;;;16.03;73.69
56992;BME280;42885;49.754;18.636;2024-03-02T10:14:26;97681.04;;;15.94;74.25
56992;BME280;42885;49.754;18.636;2024-03-02T10:17:17;97679.80;;;16.12;74.21
56992;BME280;42885;49.754;18.636;2024-03-02T10:20:22;97683.63;;;16.14;74.49
56992;BME280;42885;49.754;18.636;2024-03-02T10:23:14;97671.94;;;15.92;76.29
56992;BME280;42885;49.754;18.636;2024-03-02T10:26:17;97679.33;;;16.13;72.83
56992;BME280;42885;49.754;18.636;2024-03-02T10:29:13;97675.05;;;16.02;74.77
56992;BME280;42885;49.754;18.636;2024-03-02T10:31:58;97686.86;;;16.21;72.37
56992;BME280;42885;49.754;18.636;2024-03-02T10:34:49;97676.94;;;16.19;71.19
56992;BME280;42885;49.754;18.636;2024-03-02T10:37:39;97680.27;;;16.21;71.80
56992;BME280;42885;49.754;18.636;2024-03-02T10:40:29;97684.30;;;16.26;72.46
56992;BME280;42885;49.754;18.636;2024-03-02T10:43:19;97680.02;;;16.38;72.80
56992;BME280;42885;49.754;18.636;2024-03-02T10:46:10;97677.19;;;16.64;75.57
56992;BME280;42885;49.754;18.636;2024-03-02T10:49:01;97687.13;;;16.52;76.05
56992;BME280;42885;49.754;18.636;2024-03-02T10:51:51;97688.58;;;16.03;76.25
56992;BME280;42885;49.754;18.636;2024-03-02T10:54:40;97686.50;;;15.96;77.70
56992;BME280;42885;49.754;18.636;2024-03-02T10:57:42;97695.10;;;15.79;80.67
56992;BME280;42885;49.754;18.636;2024-03-02T11:00:26;97692.75;;;15.56;86.67
56992;BME280;42885;49.754;18.636;2024-03-02T11:03:18;97692.67;;;15.42;90.47
56992;BME280;42885;49.754;18.636;2024-03-02T11:06:09;97698.26;;;15.13;91.18
56992;BME280;42885;49.754;18.636;2024-03-02T11:09:01;97703.72;;;14.96;93.62
56992;BME280;42885;49.754;18.636;2024-03-02T11:14:51;97695.21;;;14.83;99.20
56992;BME280;42885;49.754;18.636;2024-03-02T11:17:42;97695.48;;;14.80;99.67
56992;BME280;42885;49.754;18.636;2024-03-02T11:20:32;97693.64;;;14.86;100.00
56992;BME280;42885;49.754;18.636;2024-03-02T11:23:32;97684.27;;;14.88;100.00
56992;BME280;42885;49.754;18.636;2024-03-02T11:26:22;97686.39;;;14.78;100.00
56992;BME280;42885;49.754;18.636;2024-03-02T11:32:23;97682.45;;;15.13;100.00
56992;BME280;42885;49.754;18.636;2024-03-02T11:35:13;97678.38;;;14.90;100.00
56992;BME280;42885;49.754;18.636;2024-03-02T11:38:03;97680.76;;;14.93;100.00
56992;BME280;42885;49.754;18.636;2024-03-02T11:40:52;97680.00;;;14.96;100.00
56992;BME280;42885;49.754;18.636;2024-03-02T11:43:42;97676.62;;;15.00;100.00
56992;BME280;42885;49.754;18.636;2024-03-02T11:46:32;97682.36;;;14.99;100.00
56992;BME280;42885;49.754;18.636;2024-03-02T11:49:38;97677.91;;;14.90;100.00
56992;BME280;42885;49.754;18.636;2024-03-02T11:52:28;97681.44;;;14.69;100.00
56992;BME280;42885;49.754;18.636;2024-03-02T11:55:20;97684.81;;;14.66;100.00
56992;BME280;42885;49.754;18.636;2024-03-02T11:58:09;97688.27;;;14.51;100.00
56992;BME280;42885;49.754;18.636;2024-03-02T12:00:59;97682.77;;;14.64;100.00
56992;BME280;42885;49.754;18.636;2024-03-02T12:03:48;97683.17;;;14.59;100.00
56992;BME280;42885;49.754;18.636;2024-03-02T12:06:38;97684.53;;;14.69;100.00
56992;BME280;42885;49.754;18.636;2024-03-02T12:09:28;97681.98;;;14.79;100.00
56992;BME280;42885;49.754;18.636;2024-03-02T12:12:17;97683.54;;;14.76;100.00
56992;BME280;42885;49.754;18.636;2024-03-02T12:15:08;97684.49;;;14.59;100.00
56992;BME280;42885;49.754;18.636;2024-03-02T12:18:00;97681.06;;;14.68;100.00
56992;BME280;42885;49.754;18.636;2024-03-02T12:20:50;97676.83;;;14.77;100.00
56992;BME280;42885;49.754;18.636;2024-03-02T12:23:41;97679.47;;;14.77;100.00
56992;BME280;42885;49.754;18.636;2024-03-02T12:26:30;97681.68;;;14.66;100.00
56992;BME280;42885;49.754;18.636;2024-03-02T12:29:21;97681.91;;;14.84;100.00
56992;BME280;42885;49.754;18.636;2024-03-02T12:32:10;97683.89;;;15.02;100.00
56992;BME280;42885;49.754;18.636;2024-03-02T12:34:59;97682.70;;;15.00;100.00
56992;BME280;42885;49.754;18.636;2024-03-02T12:37:50;97679.53;;;14.81;100.00
56992;BME280;42885;49.754;18.636;2024-03-02T12:40:39;97679.53;;;14.81;100.00
56992;BME280;42885;49.754;18.636;2024-03-02T12:43:31;97681.78;;;14.70;100.00
56992;BME280;42885;49.754;18.636;2024-03-02T12:46:22;97677.87;;;14.80;100.00
56992;BME280;42885;49.754;18.636;2024-03-02T12:49:12;97677.87;;;14.80;100.00
56992;BME280;42885;49.754;18.636;2024-03-02T12:52:02;97675.77;;;14.58;100.00
56992;BME280;42885;49.754;18.636;2024-03-02T12:54:51;97671.63;;;14.81;100.00
56992;BME280;42885;49.754;18.636;2024-03-02T12:57:41;97675.98;;;15.02;100.00
56992;BME280;42885;49.754;18.636;2024-03-02T13:00:32;97669.88;;;14.92;100.00
56992;BME280;42885;49.754;18.636;2024-03-02T13:03:23;97671.91;;;14.78;100.00
56992;BME280;42885;49.754;18.636;2024-03-02T13:06:12;97670.11;;;14.63;100.00
56992;BME280;42885;49.754;18.636;2024-03-02T13:09:02;97661.77;;;14.58;100.00
56992;BME280;42885;49.754;18.636;2024-03-02T13:11:51;97662.62;;;14.43;100.00
56992;BME280;42885;49.754;18.636;2024-03-02T13:14:41;97661.64;;;14.59;100.00
56992;BME280;42885;49.754;18.636;2024-03-02T13:17:30;97655.53;;;14.59;100.00
56992;BME280;42885;49.754;18.636;2024-03-02T13:20:21;97647.92;;;14.81;100.00
56992;BME280;42885;49.754;18.636;2024-03-02T13:23:10;97639.64;;;14.96;100.00
56992;BME280;42885;49.754;18.636;2024-03-02T13:25:59;97638.22;;;15.07;100.00
56992;BME280;42885;49.754;18.636;2024-03-02T13:28:49;97642.70;;;15.01;100.00
56992;BME280;42885;49.754;18.636;2024-03-02T13:31:38;97636.18;;;15.05;100.00
56992;BME280;42885;49.754;18.636;2024-03-02T13:34:28;97640.77;;;15.23;100.00
56992;BME280;42885;49.754;18.636;2024-03-02T13:37:18;97637.52;;;15.35;100.00
56992;BME280;42885;49.754;18.636;2024-03-02T13:40:08;97636.47;;;15.61;100.00
56992;BME280;42885;49.754;18.636;2024-03-02T13:42:59;97639.53;;;15.66;100.00
56992;BME280;42885;49.754;18.636;2024-03-02T13:45:48;97631.41;;;15.54;100.00
56992;BME280;42885;49.754;18.636;2024-03-02T13:48:38;97642.93;;;15.63;100.00
56992;BME280;42885;49.754;18.636;2024-03-02T13:51:27;97634.86;;;15.64;100.00
56992;BME280;42885;49.754;18.636;2024-03-02T13:54:16;97633.23;;;15.53;100.00
56992;BME280;42885;49.754;18.636;2024-03-02T13:57:05;97631.21;;;15.32;100.00
56992;BME280;42885;49.754;18.636;2024-03-02T13:59:55;97635.38;;;15.34;100.00
56992;BME280;42885;49.754;18.636;2024-03-02T14:02:46;97637.23;;;15.48;100.00
56992;BME280;42885;49.754;18.636;2024-03-02T14:05:37;97638.29;;;15.51;100.00
56992;BME280;42885;49.754;18.636;2024-03-02T14:08:29;97641.89;;;15.30;100.00
56992;BME280;42885;49.754;18.636;2024-03-02T14:11:19;97638.20;;;15.17;100.00
56992;BME280;42885;49.754;18.636;2024-03-02T14:14:08;97635.64;;;15.31;100.00
56992;BME280;42885;49.754;18.636;2024-03-02T14:16:59;97637.36;;;15.56;100.00
56992;BME280;42885;49.754;18.636;2024-03-02T14:19:49;97644.73;;;15.33;100.00
56992;BME280;42885;49.754;18.636;2024-03-02T14:22:40;97633.86;;;15.41;100.00
56992;BME280;42885;49.754;18.636;2024-03-02T14:25:30;97636.89;;;15.47;100.00
56992;BME280;42885;49.754;18.636;2024-03-02T14:28:20;97634.61;;;15.28;100.00
56992;BME280;42885;49.754;18.636;2024-03-02T14:31:09;97638.16;;;15.43;100.00
56992;BME280;42885;49.754;18.636;2024-03-02T14:33:58;97638.00;;;15.64;100.00
56992;BME280;42885;49.754;18.636;2024-03-02T14:36:48;97632.94;;;15.66;100.00
56992;BME280;42885;49.754;18.636;2024-03-02T14:39:37;97627.31;;;15.89;100.00
56992;BME280;42885;49.754;18.636;2024-03-02T14:42:28;97629.78;;;15.77;100.00
56992;BME280;42885;49.754;18.636;2024-03-02T14:45:19;97635.39;;;15.44;100.00
56992;BME280;42885;49.754;18.636;2024-03-02T14:48:08;97636.13;;;15.50;100.00